createdAt,value
2023-02-27T00:02:05.391Z,1.70
2023-02-27T00:04:33.373Z,1.70
2023-02-27T00:07:01.274Z,1.60
2023-02-27T00:09:29.139Z,1.63
2023-02-27T00:11:57.060Z,2.00
2023-02-27T00:14:26.444Z,1.70
2023-02-27T00:16:54.334Z,1.60
2023-02-27T00:19:22.496Z,1.53
2023-02-27T00:21:50.340Z,2.13
2023-02-27T00:24:18.355Z,1.70
2023-02-27T00:26:46.263Z,1.57
2023-02-27T00:29:14.123Z,1.70
2023-02-27T00:31:43.427Z,1.50
2023-02-27T00:34:11.457Z,1.63
2023-02-27T00:36:39.294Z,1.50
2023-02-27T00:39:07.134Z,1.50
2023-02-27T00:41:34.959Z,1.33
2023-02-27T00:44:02.804Z,1.30
2023-02-27T00:46:30.667Z,1.52
2023-02-27T00:48:59.995Z,1.33
2023-02-27T00:51:28.201Z,1.27
2023-02-27T00:53:56.269Z,1.50
2023-02-27T00:56:24.178Z,1.50
2023-02-27T00:58:52.107Z,1.57
2023-02-27T01:01:19.972Z,1.50
2023-02-27T01:03:47.902Z,1.60
2023-02-27T01:06:17.274Z,1.80
2023-02-27T01:08:45.217Z,1.70
2023-02-27T01:11:13.205Z,1.60
2023-02-27T01:13:41.116Z,1.30
2023-02-27T01:16:10.497Z,1.42
2023-02-27T01:18:38.479Z,1.50
2023-02-27T01:21:06.588Z,1.30
2023-02-27T01:23:38.191Z,1.45
2023-02-27T01:26:06.357Z,1.60
2023-02-27T01:28:34.327Z,1.63
2023-02-27T01:31:02.376Z,1.50
2023-02-27T01:33:30.400Z,1.57
2023-02-27T01:35:58.361Z,1.20
2023-02-27T01:38:26.736Z,1.50
2023-02-27T01:40:57.300Z,1.85
2023-02-27T01:43:25.428Z,1.40
2023-02-27T01:45:53.795Z,1.80
2023-02-27T01:48:26.977Z,1.43
2023-02-27T01:50:57.810Z,1.33
2023-02-27T01:53:27.211Z,1.50
2023-02-27T01:56:01.646Z,1.58
2023-02-27T01:58:32.086Z,1.40
2023-02-27T02:01:00.153Z,1.23
2023-02-27T02:03:34.451Z,1.55
2023-02-27T02:06:04.150Z,1.48
2023-02-27T02:08:35.134Z,1.73
2023-02-27T02:11:04.971Z,1.40
2023-02-27T02:13:33.820Z,1.50
2023-02-27T02:16:16.216Z,1.52
2023-02-27T02:18:52.804Z,1.50
2023-02-27T02:21:57.477Z,1.40
2023-02-27T02:25:05.332Z,1.67
2023-02-27T02:27:48.503Z,1.35
2023-02-27T02:30:51.502Z,1.38
2023-02-27T02:34:00.738Z,1.70
2023-02-27T02:37:09.877Z,1.70
2023-02-27T02:40:07.699Z,1.45
2023-02-27T02:42:43.450Z,1.27
2023-02-27T02:45:16.805Z,1.45
2023-02-27T02:47:55.433Z,1.20
2023-02-27T02:50:28.678Z,1.92
2023-02-27T02:53:07.131Z,1.70
2023-02-27T02:55:42.276Z,1.23
2023-02-27T02:58:17.268Z,1.70
2023-02-27T03:00:49.677Z,1.90
2023-02-27T03:03:22.649Z,1.50
2023-02-27T03:05:54.035Z,1.90
2023-02-27T03:08:26.860Z,1.30
2023-02-27T03:10:59.370Z,1.80
2023-02-27T03:13:32.718Z,1.73
2023-02-27T03:16:06.233Z,1.60
2023-02-27T03:18:41.799Z,1.30
2023-02-27T03:21:14.737Z,1.45
2023-02-27T03:23:45.583Z,1.88
2023-02-27T03:26:20.319Z,1.42
2023-02-27T03:29:01.905Z,1.55
2023-02-27T03:31:34.728Z,1.50
2023-02-27T03:34:09.175Z,1.60
2023-02-27T03:36:45.463Z,1.50
2023-02-27T03:39:23.295Z,1.42
2023-02-27T03:41:56.070Z,1.50
2023-02-27T03:44:29.685Z,1.30
2023-02-27T03:46:57.747Z,1.55
2023-02-27T03:49:25.830Z,1.70
2023-02-27T03:51:53.969Z,1.60
2023-02-27T03:54:27.076Z,1.80
2023-02-27T03:57:00.061Z,1.40
2023-02-27T03:59:28.825Z,1.40
2023-02-27T04:01:58.450Z,1.58
2023-02-27T04:04:27.831Z,1.40
2023-02-27T04:07:16.935Z,1.70
2023-02-27T04:10:07.850Z,1.48
2023-02-27T04:13:03.773Z,1.40
2023-02-27T04:15:41.227Z,1.60
2023-02-27T04:18:19.785Z,1.70
2023-02-27T04:20:51.966Z,1.60
2023-02-27T04:23:24.496Z,1.50
2023-02-27T04:26:03.252Z,1.42
2023-02-27T04:28:44.195Z,1.77
2023-02-27T04:31:18.422Z,1.50
2023-02-27T04:33:51.871Z,1.55
2023-02-27T04:36:28.142Z,1.60
2023-02-27T04:39:03.587Z,1.80
2023-02-27T04:41:37.169Z,1.70
2023-02-27T04:44:09.001Z,1.63
2023-02-27T04:46:40.242Z,1.80
2023-02-27T04:49:12.698Z,1.63
2023-02-27T04:51:48.163Z,1.95
2023-02-27T04:54:20.432Z,1.58
2023-02-27T04:56:53.648Z,1.58
2023-02-27T04:59:28.847Z,1.77
2023-02-27T05:02:00.835Z,1.40
2023-02-27T05:04:33.823Z,1.50
2023-02-27T05:07:03.980Z,1.98
2023-02-27T05:09:38.532Z,1.70
2023-02-27T05:12:13.467Z,1.48
2023-02-27T05:14:46.822Z,1.80
2023-02-27T05:17:20.323Z,1.42
2023-02-27T05:19:49.014Z,1.40
2023-02-27T05:22:29.842Z,1.40
2023-02-27T05:25:05.079Z,1.52
2023-02-27T05:27:38.369Z,1.50
2023-02-27T05:30:15.178Z,1.58
2023-02-27T05:32:49.319Z,1.88
2023-02-27T05:35:24.529Z,1.60
2023-02-27T05:37:59.911Z,1.70
2023-02-27T05:40:34.145Z,1.52
2023-02-27T05:43:07.492Z,1.52
2023-02-27T05:45:40.314Z,1.25
2023-02-27T05:48:10.816Z,1.45
2023-02-27T05:50:40.063Z,1.80
2023-02-27T05:53:11.477Z,1.73
2023-02-27T05:55:42.215Z,1.77
2023-02-27T05:58:16.462Z,1.60
2023-02-27T06:00:48.607Z,1.90
2023-02-27T06:03:17.018Z,1.70
2023-02-27T06:05:45.569Z,1.45
2023-02-27T06:08:13.524Z,1.67
2023-02-27T06:10:41.368Z,1.85
2023-02-27T06:13:09.226Z,1.85
2023-02-27T06:15:37.519Z,1.77
2023-02-27T06:18:06.869Z,1.88
2023-02-27T06:20:34.771Z,1.63
2023-02-27T06:23:02.787Z,1.90
2023-02-27T06:25:30.684Z,1.80
2023-02-27T06:27:58.528Z,1.80
2023-02-27T06:30:26.960Z,1.85
2023-02-27T06:32:54.976Z,1.63
2023-02-27T06:35:24.347Z,1.67
2023-02-27T06:37:52.339Z,2.00
2023-02-27T06:40:20.362Z,1.55
2023-02-27T06:42:48.353Z,2.10
2023-02-27T06:45:17.487Z,2.03
2023-02-27T06:47:45.932Z,1.75
2023-02-27T06:50:14.831Z,1.75
2023-02-27T06:52:44.299Z,1.90
2023-02-27T06:55:12.846Z,1.95
2023-02-27T06:57:40.863Z,1.83
2023-02-27T07:00:11.836Z,1.80
2023-02-27T07:02:40.182Z,2.13
2023-02-27T07:05:10.924Z,2.10
2023-02-27T07:07:39.303Z,1.95
2023-02-27T07:10:12.229Z,1.70
2023-02-27T07:12:41.028Z,2.13
2023-02-27T07:15:10.060Z,1.77
2023-02-27T07:17:38.132Z,1.95
2023-02-27T07:20:08.173Z,1.92
2023-02-27T07:22:36.286Z,2.00
2023-02-27T07:25:04.726Z,1.90
2023-02-27T07:27:36.735Z,1.80
2023-02-27T07:30:05.440Z,2.13
2023-02-27T07:32:33.333Z,1.70
2023-02-27T07:35:01.325Z,1.80
2023-02-27T07:37:29.261Z,1.80
2023-02-27T07:39:57.198Z,1.60
2023-02-27T07:42:25.250Z,1.48
2023-02-27T07:44:54.444Z,1.30
2023-02-27T07:47:22.333Z,1.80
2023-02-27T07:49:52.523Z,1.67
2023-02-27T07:52:20.458Z,1.70
2023-02-27T07:54:48.397Z,1.87
2023-02-27T07:57:16.290Z,2.00
2023-02-27T07:59:44.375Z,1.63
2023-02-27T08:02:14.104Z,1.40
2023-02-27T08:04:42.152Z,1.45
2023-02-27T08:07:10.025Z,2.00
2023-02-27T08:09:37.995Z,1.42
2023-02-27T08:12:06.275Z,1.53
2023-02-27T08:14:34.224Z,1.40
2023-02-27T08:17:02.362Z,1.83
2023-02-27T08:19:31.578Z,1.47
2023-02-27T08:21:59.469Z,1.40
2023-02-27T08:24:27.592Z,1.47
2023-02-27T08:26:55.414Z,1.50
2023-02-27T08:29:23.293Z,1.50
2023-02-27T08:31:51.271Z,1.60
2023-02-27T08:34:19.609Z,1.57
2023-02-27T08:36:48.855Z,1.47
2023-02-27T08:39:17.798Z,1.50
2023-02-27T08:41:45.648Z,1.43
2023-02-27T08:44:14.005Z,1.60
2023-02-27T08:46:41.884Z,1.70
2023-02-27T08:49:09.775Z,1.57
2023-02-27T08:51:37.720Z,1.30
2023-02-27T08:54:06.989Z,1.70
2023-02-27T08:56:35.329Z,1.50
2023-02-27T08:59:03.427Z,1.20
2023-02-27T09:01:34.434Z,1.70
2023-02-27T09:04:03.343Z,1.40
2023-02-27T09:06:32.522Z,1.50
2023-02-27T09:09:01.415Z,1.70
2023-02-27T09:11:30.997Z,1.47
2023-02-27T09:13:59.291Z,1.47
2023-02-27T09:16:27.910Z,1.60
2023-02-27T09:18:56.512Z,1.50
2023-02-27T09:21:24.779Z,1.70
2023-02-27T09:23:52.917Z,1.20
2023-02-27T09:26:22.928Z,1.40
2023-02-27T09:28:55.843Z,1.70
2023-02-27T09:31:23.816Z,1.60
2023-02-27T09:33:51.817Z,1.40
2023-02-27T09:36:20.669Z,1.60
2023-02-27T09:38:48.714Z,1.77
2023-02-27T09:41:39.124Z,1.40
2023-02-27T09:44:19.190Z,1.77
2023-02-27T09:46:47.164Z,1.37
2023-02-27T09:49:20.010Z,1.50
2023-02-27T09:51:48.996Z,1.70
2023-02-27T09:54:17.089Z,1.50
2023-02-27T09:56:50.834Z,1.57
2023-02-27T09:59:32.561Z,1.40
2023-02-27T10:02:09.068Z,1.37
2023-02-27T10:04:43.376Z,1.30
2023-02-27T10:07:17.949Z,1.50
2023-02-27T10:09:57.187Z,1.23
2023-02-27T10:12:53.851Z,1.50
2023-02-27T10:15:27.198Z,1.50
2023-02-27T10:17:59.406Z,1.53
2023-02-27T10:20:31.361Z,1.40
2023-02-27T10:23:03.020Z,1.60
2023-02-27T10:25:41.700Z,1.50
2023-02-27T10:28:14.463Z,1.60
2023-02-27T10:30:48.190Z,1.33
2023-02-27T10:33:26.726Z,1.73
2023-02-27T10:35:55.813Z,1.50
2023-02-27T10:38:33.146Z,1.37
2023-02-27T10:41:02.543Z,1.50
2023-02-27T10:43:30.544Z,1.13
2023-02-27T10:46:02.705Z,1.30
2023-02-27T10:48:32.983Z,2.77
2023-02-27T10:51:23.425Z,1.20
2023-02-27T10:53:52.756Z,1.30
2023-02-27T10:56:27.067Z,1.10
2023-02-27T10:59:06.221Z,1.20
2023-02-27T11:01:49.015Z,1.20
2023-02-27T11:04:26.394Z,1.10
2023-02-27T11:06:55.271Z,0.90
2023-02-27T11:09:24.867Z,0.80
2023-02-27T11:11:53.753Z,0.70
2023-02-27T11:14:30.677Z,1.00
2023-02-27T11:17:01.644Z,1.00
2023-02-27T11:19:35.072Z,0.97
2023-02-27T11:22:08.768Z,0.93
2023-02-27T11:24:36.852Z,1.40
2023-02-27T11:27:18.000Z,1.00
2023-02-27T11:29:58.102Z,0.90
2023-02-27T11:32:31.814Z,0.90
2023-02-27T11:34:59.876Z,0.90
2023-02-27T11:37:31.671Z,0.80
2023-02-27T11:40:12.720Z,0.80
2023-02-27T11:42:46.610Z,0.63
2023-02-27T11:46:13.608Z,0.57
2023-02-27T11:48:22.723Z,0.97
2023-02-27T11:51:06.725Z,0.87
2023-02-27T11:54:06.950Z,0.60
2023-02-27T11:56:38.809Z,0.90
2023-02-27T11:59:17.774Z,0.70
2023-02-27T12:01:51.576Z,0.80
2023-02-27T12:04:25.781Z,0.90
2023-02-27T12:06:58.325Z,0.90
2023-02-27T12:09:40.117Z,0.73
2023-02-27T12:12:15.660Z,0.90
2023-02-27T12:14:48.412Z,0.90
2023-02-27T12:17:23.423Z,0.90
2023-02-27T12:20:14.437Z,0.93
2023-02-27T12:22:47.040Z,0.90
2023-02-27T12:25:33.278Z,1.03
2023-02-27T12:28:08.204Z,0.80
2023-02-27T12:30:43.142Z,1.07
2023-02-27T12:33:21.009Z,0.70
2023-02-27T12:35:56.483Z,0.80
2023-02-27T12:38:25.393Z,1.00
2023-02-27T12:41:08.976Z,0.73
2023-02-27T12:43:43.497Z,0.80
2023-02-27T12:46:36.938Z,0.80
2023-02-27T12:49:21.796Z,0.90
2023-02-27T12:52:04.344Z,0.73
2023-02-27T12:54:40.030Z,0.70
2023-02-27T12:57:24.078Z,0.90
2023-02-27T13:00:07.423Z,0.60
2023-02-27T13:02:57.879Z,0.80
2023-02-27T13:05:36.871Z,0.90
2023-02-27T13:08:21.612Z,0.80
2023-02-27T13:10:55.379Z,1.33
2023-02-27T13:13:29.128Z,1.20
2023-02-27T13:16:00.641Z,1.20
2023-02-27T13:18:43.394Z,0.90
2023-02-27T13:21:14.369Z,1.10
2023-02-27T13:23:52.800Z,0.83
2023-02-27T13:26:26.020Z,0.90
2023-02-27T13:28:54.776Z,1.00
2023-02-27T13:31:31.974Z,1.10
2023-02-27T13:34:09.010Z,0.80
2023-02-27T13:36:41.269Z,0.80
2023-02-27T13:39:42.454Z,1.00
2023-02-27T13:42:43.630Z,1.60
2023-02-27T13:45:45.245Z,1.10
2023-02-27T13:48:39.986Z,0.77
2023-02-27T13:51:29.215Z,0.87
2023-02-27T13:54:19.686Z,0.87
2023-02-27T13:56:51.411Z,1.00
2023-02-27T13:59:23.727Z,0.90
2023-02-27T14:01:57.711Z,0.70
2023-02-27T14:04:30.884Z,0.90
2023-02-27T14:07:01.402Z,1.23
2023-02-27T14:09:35.880Z,0.90
2023-02-27T14:12:07.588Z,0.80
2023-02-27T14:14:39.954Z,1.10
2023-02-27T14:17:10.894Z,1.13
2023-02-27T14:19:59.307Z,0.80
2023-02-27T14:22:37.297Z,0.90
2023-02-27T14:25:21.985Z,0.93
2023-02-27T14:27:56.872Z,0.90
2023-02-27T14:30:32.229Z,0.60
2023-02-27T14:33:08.227Z,0.60
2023-02-27T14:35:37.659Z,0.73
2023-02-27T14:38:10.753Z,0.90
2023-02-27T14:40:44.743Z,0.83
2023-02-27T14:43:24.724Z,0.80
2023-02-27T14:45:54.682Z,0.87
2023-02-27T14:48:29.687Z,0.70
2023-02-27T14:50:58.114Z,0.80
2023-02-27T14:53:28.036Z,0.60
2023-02-27T14:55:57.551Z,0.93
2023-02-27T14:58:27.366Z,0.83
2023-02-27T15:01:04.348Z,0.37
2023-02-27T15:03:37.459Z,0.73
2023-02-27T15:06:14.217Z,0.53
2023-02-27T15:08:46.363Z,0.67
2023-02-27T15:11:16.967Z,0.60
2023-02-27T15:13:47.339Z,1.07
2023-02-27T15:16:36.565Z,0.67
2023-02-27T15:19:15.651Z,0.93
2023-02-27T15:21:46.337Z,0.80
2023-02-27T15:24:27.749Z,0.80
2023-02-27T15:27:01.180Z,1.30
2023-02-27T15:29:35.521Z,0.97
2023-02-27T15:32:04.448Z,1.30
2023-02-27T15:34:32.682Z,1.50
2023-02-27T15:37:02.015Z,1.40
2023-02-27T15:39:33.709Z,1.30
2023-02-27T15:42:03.979Z,1.20
2023-02-27T15:44:37.413Z,1.10
2023-02-27T15:47:06.172Z,1.27
2023-02-27T15:49:34.191Z,0.93
2023-02-27T15:52:05.598Z,0.77
2023-02-27T15:54:34.956Z,1.20
2023-02-27T15:57:06.760Z,1.10
2023-02-27T15:59:38.925Z,1.17
2023-02-27T16:02:12.619Z,1.00
2023-02-27T16:04:40.452Z,0.70
2023-02-27T16:07:16.568Z,1.10
2023-02-27T16:09:46.269Z,1.10
2023-02-27T16:12:37.768Z,1.00
2023-02-27T16:15:25.946Z,1.17
2023-02-27T16:17:56.154Z,1.00
2023-02-27T16:20:38.656Z,0.80
2023-02-27T16:23:15.689Z,0.83
2023-02-27T16:26:00.145Z,0.73
2023-02-27T16:28:31.226Z,0.90
2023-02-27T16:31:00.836Z,0.90
2023-02-27T16:33:33.608Z,0.87
2023-02-27T16:36:19.206Z,1.47
2023-02-27T16:38:47.709Z,1.13
2023-02-27T16:41:17.622Z,0.93
2023-02-27T16:43:46.972Z,0.97
2023-02-27T16:46:20.160Z,0.70
2023-02-27T16:48:50.918Z,0.80
2023-02-27T16:51:23.190Z,0.90
2023-02-27T16:53:51.693Z,1.00
2023-02-27T16:56:35.854Z,1.40
2023-02-27T16:59:06.176Z,1.50
2023-02-27T17:01:35.746Z,1.20
2023-02-27T17:04:13.432Z,1.50
2023-02-27T17:06:47.718Z,1.33
2023-02-27T17:09:15.713Z,1.20
2023-02-27T17:11:43.844Z,1.00
2023-02-27T17:14:11.829Z,1.03
2023-02-27T17:16:41.331Z,1.10
2023-02-27T17:19:09.314Z,0.80
2023-02-27T17:21:37.248Z,1.20
2023-02-27T17:24:06.203Z,1.27
2023-02-27T17:26:34.516Z,1.20
2023-02-27T17:29:03.192Z,1.20
2023-02-27T17:31:31.179Z,1.30
2023-02-27T17:34:03.057Z,1.20
2023-02-27T17:36:31.117Z,1.43
2023-02-27T17:39:01.868Z,1.33
2023-02-27T17:41:30.848Z,1.20
2023-02-27T17:44:01.673Z,1.73
2023-02-27T17:46:33.754Z,1.40
2023-02-27T17:49:03.221Z,1.30
2023-02-27T17:51:32.202Z,1.27
2023-02-27T17:54:02.463Z,1.27
2023-02-27T17:56:30.762Z,1.10
2023-02-27T17:58:58.862Z,1.17
2023-02-27T18:01:27.472Z,1.60
2023-02-27T18:03:56.409Z,1.77
2023-02-27T18:06:26.437Z,1.23
2023-02-27T18:08:54.427Z,1.03
2023-02-27T18:11:23.195Z,1.30
2023-02-27T18:13:53.736Z,1.17
2023-02-27T18:16:22.993Z,1.60
2023-02-27T18:18:51.442Z,1.50
2023-02-27T18:21:21.393Z,1.80
2023-02-27T18:23:51.556Z,1.63
2023-02-27T18:26:32.414Z,1.80
2023-02-27T18:29:02.994Z,1.53
2023-02-27T18:31:33.446Z,1.77
2023-02-27T18:34:03.255Z,1.40
2023-02-27T18:36:32.339Z,1.30
2023-02-27T18:39:01.807Z,1.57
2023-02-27T18:41:30.184Z,1.50
2023-02-27T18:43:58.627Z,1.23
2023-02-27T18:46:27.157Z,1.50
2023-02-27T18:48:55.341Z,1.33
2023-02-27T18:51:23.738Z,1.67
2023-02-27T18:53:55.150Z,1.57
2023-02-27T18:56:26.762Z,1.60
2023-02-27T18:58:58.079Z,1.33
2023-02-27T19:01:28.059Z,2.07
2023-02-27T19:04:03.693Z,1.93
2023-02-27T19:06:32.864Z,1.83
2023-02-27T19:09:00.913Z,2.37
2023-02-27T19:11:33.213Z,2.40
2023-02-27T19:14:02.019Z,1.77
2023-02-27T19:16:30.613Z,2.10
2023-02-27T19:19:00.756Z,2.37
2023-02-27T19:21:29.359Z,2.10
2023-02-27T19:23:59.537Z,2.00
2023-02-27T19:26:27.950Z,2.23
2023-02-27T19:28:57.642Z,2.00
2023-02-27T19:31:25.847Z,1.80
2023-02-27T19:33:53.834Z,1.77
2023-02-27T19:36:23.681Z,1.90
2023-02-27T19:38:52.498Z,2.13
2023-02-27T19:41:22.034Z,2.10
2023-02-27T19:43:51.238Z,2.10
2023-02-27T19:46:23.856Z,2.10
2023-02-27T19:48:52.224Z,2.30
2023-02-27T19:51:21.111Z,2.10
2023-02-27T19:53:49.340Z,2.00
2023-02-27T19:56:20.313Z,2.30
2023-02-27T19:58:49.116Z,2.40
2023-02-27T20:01:23.433Z,2.30
2023-02-27T20:03:51.685Z,2.30
2023-02-27T20:06:20.809Z,2.23
2023-02-27T20:08:48.796Z,2.10
2023-02-27T20:11:19.746Z,2.50
2023-02-27T20:13:47.966Z,2.00
2023-02-27T20:16:18.082Z,2.50
2023-02-27T20:18:47.834Z,1.83
2023-02-27T20:21:17.933Z,1.63
2023-02-27T20:23:47.174Z,2.30
2023-02-27T20:26:18.357Z,2.17
2023-02-27T20:28:47.266Z,2.43
2023-02-27T20:31:17.020Z,2.67
2023-02-27T20:33:44.896Z,2.20
2023-02-27T20:36:14.627Z,2.57
2023-02-27T20:38:43.575Z,2.67
2023-02-27T20:41:13.354Z,2.57
2023-02-27T20:43:43.780Z,2.10
2023-02-27T20:46:14.940Z,2.40
2023-02-27T20:48:43.700Z,2.40
2023-02-27T20:51:14.976Z,2.43
2023-02-27T20:53:44.309Z,2.27
2023-02-27T20:56:12.659Z,2.40
2023-02-27T20:58:40.766Z,1.97
2023-02-27T21:01:09.885Z,2.43
2023-02-27T21:03:39.650Z,2.17
2023-02-27T21:06:08.734Z,2.40
2023-02-27T21:08:38.671Z,2.50
2023-02-27T21:11:10.287Z,1.97
2023-02-27T21:13:38.537Z,2.53
2023-02-27T21:16:09.190Z,3.05
2023-02-27T21:18:37.626Z,2.97
2023-02-27T21:21:06.771Z,2.83
2023-02-27T21:23:41.361Z,2.63
2023-02-27T21:26:15.328Z,2.20
2023-02-27T21:28:47.789Z,2.50
2023-02-27T21:31:16.807Z,2.10
2023-02-27T21:33:45.120Z,2.57
2023-02-27T21:36:13.148Z,2.60
2023-02-27T21:38:41.212Z,2.27
2023-02-27T21:41:12.765Z,2.53
2023-02-27T21:43:41.564Z,2.10
2023-02-27T21:46:11.498Z,2.47
2023-02-27T21:48:40.427Z,2.00
2023-02-27T21:51:08.693Z,2.50
2023-02-27T21:53:37.503Z,2.50
2023-02-27T21:56:07.288Z,2.00
2023-02-27T21:58:37.027Z,2.20
2023-02-27T22:01:15.409Z,2.30
2023-02-27T22:03:43.741Z,1.60
2023-02-27T22:06:12.462Z,1.87
2023-02-27T22:08:41.361Z,1.87
2023-02-27T22:11:09.570Z,2.10
2023-02-27T22:13:39.199Z,2.10
2023-02-27T22:16:08.506Z,2.03
2023-02-27T22:18:36.537Z,1.70
2023-02-27T22:21:07.932Z,2.30
2023-02-27T22:23:36.014Z,2.07
2023-02-27T22:26:06.159Z,2.13
2023-02-27T22:28:34.795Z,2.23
2023-02-27T22:31:12.204Z,2.20
2023-02-27T22:33:41.504Z,2.10
2023-02-27T22:36:11.556Z,1.83
2023-02-27T22:38:39.437Z,1.97
2023-02-27T22:41:09.412Z,2.30
2023-02-27T22:43:39.590Z,2.47
2023-02-27T22:46:08.306Z,2.10
2023-02-27T22:48:38.245Z,2.10
2023-02-27T22:51:08.859Z,1.93
2023-02-27T22:53:38.473Z,2.20
2023-02-27T22:56:08.676Z,2.10
2023-02-27T22:58:37.858Z,2.20
2023-02-27T23:01:09.958Z,2.03
2023-02-27T23:03:40.064Z,1.77
2023-02-27T23:06:10.161Z,1.60
2023-02-27T23:08:38.647Z,2.10
2023-02-27T23:11:07.722Z,1.70
2023-02-27T23:13:35.747Z,1.70
2023-02-27T23:16:11.510Z,1.93
2023-02-27T23:18:43.012Z,1.63
2023-02-27T23:21:11.078Z,1.90
2023-02-27T23:23:39.067Z,1.97
2023-02-27T23:26:07.801Z,2.03
2023-02-27T23:28:37.094Z,1.70
2023-02-27T23:31:05.883Z,1.93
2023-02-27T23:33:34.831Z,1.63
2023-02-27T23:36:05.279Z,1.70
2023-02-27T23:38:33.456Z,1.40
2023-02-27T23:41:06.304Z,1.67
2023-02-27T23:43:34.348Z,1.67
2023-02-27T23:46:07.936Z,1.53
2023-02-27T23:48:36.289Z,1.57
2023-02-27T23:51:06.898Z,1.77
2023-02-27T23:53:36.455Z,1.80
2023-02-27T23:56:13.708Z,1.43
2023-02-27T23:58:41.834Z,1.50
